Manoa — KDBG — position and weather

sailwx.info

Track history (hours):
 
Tides and Currents Weather Stations Pressure Air Temp Water Temp Dewpoint Dewpoint Depression Visibility Wind Speed Wind Dir Waves Ship Positions

Manoa

Owner: MATSON NAVIGATION CO, Tacoma, WA. More information available from US FCC via Universal Licensing System and Coast Guard Vessel Documentation Center.

Last reported at 2017-Dec-11 16:58 UTC. Time now 2017-Dec-12 06:44 UTC.
Position N 37°48' W 122°18'.

Type: Cargo ship. MMSI: 366562000.

Date/timePositionNaut miles runAvg speedWind from/ knotsBaromVisibWave heightAir tempDewpointWater temp
2017-Dec-11 16:58N 37°48' W 122°18'0 0.0
2017-Dec-11 16:28N 37°48' W 122°18'0 0.0
2017-Dec-11 15:58N 37°48' W 122°18'0 0.0
2017-Dec-11 15:28N 37°48' W 122°18'0 0.0
2017-Dec-11 14:58N 37°48' W 122°18'0 0.0
2017-Dec-11 14:28N 37°48' W 122°18'0 0.9
2017-Dec-11 14:01N 37°48' W 122°17'1 2.2
2017-Dec-11 13:31N 37°48' W 122°19'3 6.1
2017-Dec-11 13:01N 37°47' W 122°23'3 5.1
2017-Dec-11 12:31N 37°49' W 122°25'510.9
2017-Dec-11 12:00N 37°48' W 122°32'815.4
2017-Dec-11 11:31N 37°46' W 122°41'510.9
2017-Dec-11 11:00N 37°47' W 122°48'917.1
2017-Dec-11 10:30N 37°51' W 122°57'918.8
2017-Dec-11 10:00N 37°56' W 123°08'918.8
2017-Dec-11 09:30N 38°03' W 123°16'918.5
2017-Dec-11 09:00N 38°09' W 123°25'918.4
2017-Dec-11 08:30N 38°13' W 123°35'918.4
2017-Dec-11 08:00N 38°18' W 123°46'918.2
2017-Dec-11 07:30N 38°22' W 123°56'815.8
2017-Dec-11 07:00N 38°26' W 124°05'917.3
2017-Dec-11 06:30N 38°30' W 124°14'1420.4
2017-Dec-11 05:49N 38°43' W 124°22'2920.6
2017-Dec-11 04:25N 39°09' W 124°37'17018.5
2017-Dec-10 19:14N 41°52' W 125°37'522.1
2017-Dec-10 19:00N 41°58' W 125°37'1122.1
2017-Dec-10 18:30N 42°09' W 125°36'1821.3
2017-Dec-10 17:38N 42°26' W 125°26'322.1
2017-Dec-10 17:29N 42°28' W 125°23'2121.9
2017-Dec-10 16:33N 42°45' W 125°08'122.8
2017-Dec-10 16:30N 42°46' W 125°07'1223.4
2017-Dec-10 16:01N 42°58' W 125°08'1223.1
2017-Dec-10 15:31N 43°10' W 125°09'1323.0
2017-Dec-10 14:56N 43°23' W 125°09'1022.7
2017-Dec-10 14:30N 43°32' W 125°10'1122.5
2017-Dec-10 14:00N 43°44' W 125°10'1522.5
2017-Dec-10 13:22N 43°58' W 125°11'822.5
2017-Dec-10 13:00N 44°06' W 125°11'1122.5
2017-Dec-10 12:30N 44°17' W 125°12'1122.7
2017-Dec-10 12:00N 44°29' W 125°13'1122.8
2017-Dec-10 11:30N 44°40' W 125°13'1122.6
2017-Dec-10 11:00N 44°51' W 125°14'1222.6
2017-Dec-10 10:28N 45°04' W 125°14'1022.7
2017-Dec-10 10:00N 45°14' W 125°15'1122.6
2017-Dec-10 09:31N 45°25' W 125°16'1122.9
2017-Dec-10 09:01N 45°37' W 125°16'1122.7
2017-Dec-10 08:30N 45°48' W 125°17'1122.6
2017-Dec-10 08:00N 45°59' W 125°17'1122.7
2017-Dec-10 07:30N 46°11' W 125°19'1122.8
2017-Dec-10 07:00N 46°22' W 125°21'1122.4
2017-Dec-10 06:30N 46°33' W 125°20'1122.7
2017-Dec-10 06:00N 46°45' W 125°20'1122.8
2017-Dec-10 05:30N 46°56' W 125°21'1122.8
2017-Dec-10 05:00N 47°07' W 125°23'1122.4
2017-Dec-10 04:30N 47°19' W 125°23'1121.9
2017-Dec-10 04:00N 47°29' W 125°22'1019.1
2017-Dec-10 03:30N 47°39' W 125°23'815.0
2017-Dec-10 03:00N 47°47' W 125°24'3 6.1
2017-Dec-10 02:29N 47°50' W 125°24'0 0.6
2017-Dec-10 02:00N 47°50' W 125°23'611.7
2017-Dec-10 01:30N 47°56' W 125°22'918.5
2017-Dec-10 01:00N 48°04' W 125°18'1020.5
2017-Dec-10 00:30N 48°14' W 125°13'1020.5
2017-Dec-10 00:00N 48°24' W 125°08'918.2
2017-Dec-09 23:30N 48°31' W 124°59'1121.8
2017-Dec-09 23:00N 48°30' W 124°43'1122.7
2017-Dec-09 22:30N 48°26' W 124°27'1122.7
2017-Dec-09 22:00N 48°21' W 124°11'1122.7
2017-Dec-09 21:31N 48°18' W 123°55'1122.5
2017-Dec-09 21:00N 48°16' W 123°38'918.5
2017-Dec-09 20:30N 48°12' W 123°25'611.7
2017-Dec-09 20:00N 48°10' W 123°18'1019.5
2017-Dec-09 19:30N 48°13' W 123°03'2319.0
2017-Dec-09 18:18N 47°59' W 122°35'620.9
2017-Dec-09 18:00N 47°55' W 122°30'1019.1
2017-Dec-09 17:30N 47°45' W 122°26'815.6
2017-Dec-09 17:01N 47°38' W 122°26'4 7.9
2017-Dec-09 16:31N 47°36' W 122°21'1 1.3
2017-Dec-09 16:01N 47°35' W 122°21'0 0.0
2017-Dec-09 15:31N 47°35' W 122°21'0 0.0
2017-Dec-09 14:59N 47°35' W 122°21'0 0.0
2017-Dec-09 14:29N 47°35' W 122°21'0 0.0
2017-Dec-09 13:56N 47°35' W 122°21'0 0.0
2017-Dec-09 13:29N 47°35' W 122°21'0 0.0
2017-Dec-09 12:56N 47°35' W 122°21'0 0.0
2017-Dec-09 12:26N 47°35' W 122°21'0 0.0
2017-Dec-09 11:59N 47°35' W 122°21'0 0.0
2017-Dec-09 11:29N 47°35' W 122°21'0 0.0
2017-Dec-09 10:59N 47°35' W 122°21'0 0.0
2017-Dec-09 10:29N 47°35' W 122°21'0 0.0
2017-Dec-09 09:59N 47°35' W 122°21'0 0.0
2017-Dec-09 09:29N 47°35' W 122°21'0 0.0
2017-Dec-09 08:59N 47°35' W 122°21'0 0.0
2017-Dec-09 08:29N 47°35' W 122°21'0 0.0
2017-Dec-09 08:00N 47°35' W 122°21'0 0.0
2017-Dec-09 07:29N 47°35' W 122°21'0 0.0
2017-Dec-09 06:59N 47°35' W 122°21'0 0.0
2017-Dec-09 06:30N 47°35' W 122°21'0 0.0
2017-Dec-09 05:56N 47°35' W 122°21'0 0.0
2017-Dec-09 05:30N 47°35' W 122°21'0 0.0
2017-Dec-09 05:00N 47°35' W 122°21'0 0.0
2017-Dec-09 04:29N 47°35' W 122°21'0 0.0
2017-Dec-09 03:59N 47°35' W 122°21'0 0.0
2017-Dec-09 03:29N 47°35' W 122°21'0 0.0
2017-Dec-09 03:00N 47°35' W 122°21'0 0.0
2017-Dec-09 02:29N 47°35' W 122°21'0 0.0
2017-Dec-09 01:59N 47°35' W 122°21'0 0.0
2017-Dec-09 01:29N 47°35' W 122°21'0 0.0
2017-Dec-09 01:00N 47°35' W 122°21'0 0.0
2017-Dec-09 00:29N 47°35' W 122°21'0 0.0
2017-Dec-08 23:59N 47°35' W 122°21'0 0.0
2017-Dec-08 23:30N 47°35' W 122°21'0 0.0
2017-Dec-08 23:00N 47°35' W 122°21'0 0.0
2017-Dec-08 22:30N 47°35' W 122°21'0 0.0
2017-Dec-08 21:59N 47°35' W 122°21'0 0.0
2017-Dec-08 21:30N 47°35' W 122°21'0 0.0
2017-Dec-08 20:59N 47°35' W 122°21'0 0.0
2017-Dec-08 20:30N 47°35' W 122°21'0 0.0
2017-Dec-08 20:00N 47°35' W 122°21'0 0.0
2017-Dec-08 19:29N 47°35' W 122°21'0 0.0
2017-Dec-08 18:59N 47°35' W 122°21'0 0.0
2017-Dec-08 18:30N 47°35' W 122°21'0 0.0
2017-Dec-08 18:00N 47°35' W 122°21'0 0.0
2017-Dec-08 17:30N 47°35' W 122°21'0 0.0
2017-Dec-08 16:59N 47°35' W 122°21'0 0.0
2017-Dec-08 16:29N 47°35' W 122°21'0 0.0
2017-Dec-08 16:00N 47°35' W 122°21'0 0.0
2017-Dec-08 15:29N 47°35' W 122°21'0 0.0
2017-Dec-08 14:59N 47°35' W 122°21'0 0.0
2017-Dec-08 14:29N 47°35' W 122°21'0 0.0
2017-Dec-08 14:00N 47°35' W 122°21'0 0.0
2017-Dec-08 13:29N 47°35' W 122°21'0 0.0
2017-Dec-08 12:59N 47°35' W 122°21'0 0.0
2017-Dec-08 12:30N 47°35' W 122°21'0 0.0
2017-Dec-08 12:00N 47°35' W 122°21'0 0.0
2017-Dec-08 11:29N 47°35' W 122°21'0 0.0
2017-Dec-08 11:00N 47°35' W 122°21'0 0.0
2017-Dec-08 10:30N 47°35' W 122°21'0 0.0
2017-Dec-08 09:59N 47°35' W 122°21'0 0.0
2017-Dec-08 09:29N 47°35' W 122°21'0 0.0
2017-Dec-08 09:00N 47°35' W 122°21'0 0.0
2017-Dec-08 08:29N 47°35' W 122°21'0 0.0
2017-Dec-08 08:00N 47°35' W 122°21'0 0.0
2017-Dec-08 07:29N 47°35' W 122°21'0 0.0
2017-Dec-08 07:00N 47°35' W 122°21'0 0.0
2017-Dec-08 06:29N 47°35' W 122°21'0 0.0
2017-Dec-08 05:59N 47°35' W 122°21'0 0.0
2017-Dec-08 05:29N 47°35' W 122°21'0 0.0
2017-Dec-08 04:59N 47°35' W 122°21'0 0.0
2017-Dec-08 04:29N 47°35' W 122°21'0 0.0
2017-Dec-08 04:00N 47°35' W 122°21'0 0.0
2017-Dec-08 03:30N 47°35' W 122°21'0 0.0
2017-Dec-08 03:00N 47°35' W 122°21'0 0.0
2017-Dec-08 02:30N 47°35' W 122°21'0 0.0
2017-Dec-08 02:00N 47°35' W 122°21'0 0.1
2017-Dec-08 01:31N 47°35' W 122°21'1 1.1
2017-Dec-08 01:01N 47°36' W 122°21'3 6.8
2017-Dec-08 00:30N 47°37' W 122°25'714.4
2017-Dec-08 00:00N 47°44' W 122°27'1020.4
2017-Dec-07 23:30N 47°54' W 122°30'1220.0
2017-Dec-07 22:54N 48°05' W 122°39'818.5
2017-Dec-07 22:28N 48°10' W 122°48'918.6
2017-Dec-07 22:00N 48°12' W 123°00'917.9
2017-Dec-07 21:30N 48°11' W 123°14'713.7
2017-Dec-07 21:00N 48°10' W 123°24'510.3
2017-Dec-07 20:29N 48°13' W 123°30'613.5
2017-Dec-07 20:00N 48°13' W 123°40'1019.1
2017-Dec-07 19:30N 48°13' W 123°55'1020.2
2017-Dec-07 19:00N 48°18' W 124°08'1020.0
2017-Dec-07 18:30N 48°22' W 124°22'1020.2
2017-Dec-07 18:00N 48°26' W 124°36'1020.4
2017-Dec-07 17:30N 48°29' W 124°50'1020.1
2017-Dec-07 17:00N 48°28' W 125°06'1019.7
2017-Dec-07 16:30N 48°21' W 125°15'1122.5
2017-Dec-07 16:00N 48°11' W 125°24'1223.0
2017-Dec-07 15:30N 48°01' W 125°33'1223.4
2017-Dec-07 15:01N 47°51' W 125°41'1223.1
2017-Dec-07 14:30N 47°41' W 125°50'1123.0
2017-Dec-07 14:00N 47°31' W 125°59'1122.7
2017-Dec-07 13:30N 47°22' W 126°07'1123.0
2017-Dec-07 13:01N 47°12' W 126°16'1223.4
2017-Dec-07 12:30N 47°02' W 126°25'1223.5
2017-Dec-07 12:00N 46°51' W 126°33'1223.5
2017-Dec-07 11:31N 46°41' W 126°42'1223.7
2017-Dec-07 11:01N 46°31' W 126°50'1223.7
2017-Dec-07 10:31N 46°21' W 126°59'1223.8
2017-Dec-07 10:00N 46°10' W 127°08'1223.8
2017-Dec-07 09:30N 46°00' W 127°16'1224.1
2017-Dec-07 09:00N 45°50' W 127°25'1224.1
2017-Dec-07 08:31N 45°39' W 127°33'1223.9
2017-Dec-07 08:01N 45°29' W 127°41'1223.8
2017-Dec-07 07:30N 45°18' W 127°50'1223.9
2017-Dec-07 07:01N 45°08' W 127°58'1223.9
2017-Dec-07 06:31N 44°58' W 128°06'1223.8
2017-Dec-07 06:01N 44°47' W 128°14'1223.6
2017-Dec-07 05:31N 44°37' W 128°22'1223.9
2017-Dec-07 05:01N 44°26' W 128°30'1424.0
2017-Dec-07 04:27N 44°14' W 128°39'1023.7
2017-Dec-07 04:01N 44°05' W 128°46'  
Track history (hours):
 
Tides and Currents Weather Stations Pressure Air Temp Water Temp Dewpoint Dewpoint Depression Visibility Wind Speed Wind Dir Waves Ship Positions

Manoa

Owner: MATSON NAVIGATION CO, Tacoma, WA. More information available from US FCC via Universal Licensing System and Coast Guard Vessel Documentation Center.

Last reported at 2017-Dec-11 16:58 UTC. Time now 2017-Dec-12 06:44 UTC.
Position N 37°48' W 122°18'.

Type: Cargo ship. MMSI: 366562000.

Date/timePositionNaut miles runAvg speedWind from/ knotsBaromVisibWave heightAir tempDewpointWater temp
2017-Dec-11 16:58N 37°48' W 122°18'0 0.0
2017-Dec-11 16:28N 37°48' W 122°18'0 0.0
2017-Dec-11 15:58N 37°48' W 122°18'0 0.0
2017-Dec-11 15:28N 37°48' W 122°18'0 0.0
2017-Dec-11 14:58N 37°48' W 122°18'0 0.0
2017-Dec-11 14:28N 37°48' W 122°18'0 0.9
2017-Dec-11 14:01N 37°48' W 122°17'1 2.2
2017-Dec-11 13:31N 37°48' W 122°19'3 6.1
2017-Dec-11 13:01N 37°47' W 122°23'3 5.1
2017-Dec-11 12:31N 37°49' W 122°25'510.9
2017-Dec-11 12:00N 37°48' W 122°32'815.4
2017-Dec-11 11:31N 37°46' W 122°41'510.9
2017-Dec-11 11:00N 37°47' W 122°48'917.1
2017-Dec-11 10:30N 37°51' W 122°57'918.8
2017-Dec-11 10:00N 37°56' W 123°08'918.8
2017-Dec-11 09:30N 38°03' W 123°16'918.5
2017-Dec-11 09:00N 38°09' W 123°25'918.4
2017-Dec-11 08:30N 38°13' W 123°35'918.4
2017-Dec-11 08:00N 38°18' W 123°46'918.2
2017-Dec-11 07:30N 38°22' W 123°56'815.8
2017-Dec-11 07:00N 38°26' W 124°05'917.3
2017-Dec-11 06:30N 38°30' W 124°14'1420.4
2017-Dec-11 05:49N 38°43' W 124°22'2920.6
2017-Dec-11 04:25N 39°09' W 124°37'17018.5
2017-Dec-10 19:14N 41°52' W 125°37'522.1
2017-Dec-10 19:00N 41°58' W 125°37'1122.1
2017-Dec-10 18:30N 42°09' W 125°36'1821.3
2017-Dec-10 17:38N 42°26' W 125°26'322.1
2017-Dec-10 17:29N 42°28' W 125°23'2121.9
2017-Dec-10 16:33N 42°45' W 125°08'122.8
2017-Dec-10 16:30N 42°46' W 125°07'1223.4
2017-Dec-10 16:01N 42°58' W 125°08'1223.1
2017-Dec-10 15:31N 43°10' W 125°09'1323.0
2017-Dec-10 14:56N 43°23' W 125°09'1022.7
2017-Dec-10 14:30N 43°32' W 125°10'1122.5
2017-Dec-10 14:00N 43°44' W 125°10'1522.5
2017-Dec-10 13:22N 43°58' W 125°11'822.5
2017-Dec-10 13:00N 44°06' W 125°11'1122.5
2017-Dec-10 12:30N 44°17' W 125°12'1122.7
2017-Dec-10 12:00N 44°29' W 125°13'1122.8
2017-Dec-10 11:30N 44°40' W 125°13'1122.6
2017-Dec-10 11:00N 44°51' W 125°14'1222.6
2017-Dec-10 10:28N 45°04' W 125°14'1022.7
2017-Dec-10 10:00N 45°14' W 125°15'1122.6
2017-Dec-10 09:31N 45°25' W 125°16'1122.9
2017-Dec-10 09:01N 45°37' W 125°16'1122.7
2017-Dec-10 08:30N 45°48' W 125°17'1122.6
2017-Dec-10 08:00N 45°59' W 125°17'1122.7
2017-Dec-10 07:30N 46°11' W 125°19'1122.8
2017-Dec-10 07:00N 46°22' W 125°21'1122.4
2017-Dec-10 06:30N 46°33' W 125°20'1122.7
2017-Dec-10 06:00N 46°45' W 125°20'1122.8
2017-Dec-10 05:30N 46°56' W 125°21'1122.8
2017-Dec-10 05:00N 47°07' W 125°23'1122.4
2017-Dec-10 04:30N 47°19' W 125°23'1121.9
2017-Dec-10 04:00N 47°29' W 125°22'1019.1
2017-Dec-10 03:30N 47°39' W 125°23'815.0
2017-Dec-10 03:00N 47°47' W 125°24'3 6.1
2017-Dec-10 02:29N 47°50' W 125°24'0 0.6
2017-Dec-10 02:00N 47°50' W 125°23'611.7
2017-Dec-10 01:30N 47°56' W 125°22'918.5
2017-Dec-10 01:00N 48°04' W 125°18'1020.5
2017-Dec-10 00:30N 48°14' W 125°13'1020.5
2017-Dec-10 00:00N 48°24' W 125°08'918.2
2017-Dec-09 23:30N 48°31' W 124°59'1121.8
2017-Dec-09 23:00N 48°30' W 124°43'1122.7
2017-Dec-09 22:30N 48°26' W 124°27'1122.7
2017-Dec-09 22:00N 48°21' W 124°11'1122.7
2017-Dec-09 21:31N 48°18' W 123°55'1122.5
2017-Dec-09 21:00N 48°16' W 123°38'918.5
2017-Dec-09 20:30N 48°12' W 123°25'611.7
2017-Dec-09 20:00N 48°10' W 123°18'1019.5
2017-Dec-09 19:30N 48°13' W 123°03'2319.0
2017-Dec-09 18:18N 47°59' W 122°35'620.9
2017-Dec-09 18:00N 47°55' W 122°30'1019.1
2017-Dec-09 17:30N 47°45' W 122°26'815.6
2017-Dec-09 17:01N 47°38' W 122°26'4 7.9
2017-Dec-09 16:31N 47°36' W 122°21'1 1.3
2017-Dec-09 16:01N 47°35' W 122°21'0 0.0
2017-Dec-09 15:31N 47°35' W 122°21'0 0.0
2017-Dec-09 14:59N 47°35' W 122°21'0 0.0
2017-Dec-09 14:29N 47°35' W 122°21'0 0.0
2017-Dec-09 13:56N 47°35' W 122°21'0 0.0
2017-Dec-09 13:29N 47°35' W 122°21'0 0.0
2017-Dec-09 12:56N 47°35' W 122°21'0 0.0
2017-Dec-09 12:26N 47°35' W 122°21'0 0.0
2017-Dec-09 11:59N 47°35' W 122°21'0 0.0
2017-Dec-09 11:29N 47°35' W 122°21'0 0.0
2017-Dec-09 10:59N 47°35' W 122°21'0 0.0
2017-Dec-09 10:29N 47°35' W 122°21'0 0.0
2017-Dec-09 09:59N 47°35' W 122°21'0 0.0
2017-Dec-09 09:29N 47°35' W 122°21'0 0.0
2017-Dec-09 08:59N 47°35' W 122°21'0 0.0
2017-Dec-09 08:29N 47°35' W 122°21'0 0.0
2017-Dec-09 08:00N 47°35' W 122°21'0 0.0
2017-Dec-09 07:29N 47°35' W 122°21'0 0.0
2017-Dec-09 06:59N 47°35' W 122°21'0 0.0
2017-Dec-09 06:30N 47°35' W 122°21'0 0.0
2017-Dec-09 05:56N 47°35' W 122°21'0 0.0
2017-Dec-09 05:30N 47°35' W 122°21'0 0.0
2017-Dec-09 05:00N 47°35' W 122°21'0 0.0
2017-Dec-09 04:29N 47°35' W 122°21'0 0.0
2017-Dec-09 03:59N 47°35' W 122°21'0 0.0
2017-Dec-09 03:29N 47°35' W 122°21'0 0.0
2017-Dec-09 03:00N 47°35' W 122°21'0 0.0
2017-Dec-09 02:29N 47°35' W 122°21'0 0.0
2017-Dec-09 01:59N 47°35' W 122°21'0 0.0
2017-Dec-09 01:29N 47°35' W 122°21'0 0.0
2017-Dec-09 01:00N 47°35' W 122°21'0 0.0
2017-Dec-09 00:29N 47°35' W 122°21'0 0.0
2017-Dec-08 23:59N 47°35' W 122°21'0 0.0
2017-Dec-08 23:30N 47°35' W 122°21'0 0.0
2017-Dec-08 23:00N 47°35' W 122°21'0 0.0
2017-Dec-08 22:30N 47°35' W 122°21'0 0.0
2017-Dec-08 21:59N 47°35' W 122°21'0 0.0
2017-Dec-08 21:30N 47°35' W 122°21'0 0.0
2017-Dec-08 20:59N 47°35' W 122°21'0 0.0
2017-Dec-08 20:30N 47°35' W 122°21'0 0.0
2017-Dec-08 20:00N 47°35' W 122°21'0 0.0
2017-Dec-08 19:29N 47°35' W 122°21'0 0.0
2017-Dec-08 18:59N 47°35' W 122°21'0 0.0
2017-Dec-08 18:30N 47°35' W 122°21'0 0.0
2017-Dec-08 18:00N 47°35' W 122°21'0 0.0
2017-Dec-08 17:30N 47°35' W 122°21'0 0.0
2017-Dec-08 16:59N 47°35' W 122°21'0 0.0
2017-Dec-08 16:29N 47°35' W 122°21'0 0.0
2017-Dec-08 16:00N 47°35' W 122°21'0 0.0
2017-Dec-08 15:29N 47°35' W 122°21'0 0.0
2017-Dec-08 14:59N 47°35' W 122°21'0 0.0
2017-Dec-08 14:29N 47°35' W 122°21'0 0.0
2017-Dec-08 14:00N 47°35' W 122°21'0 0.0
2017-Dec-08 13:29N 47°35' W 122°21'0 0.0
2017-Dec-08 12:59N 47°35' W 122°21'0 0.0
2017-Dec-08 12:30N 47°35' W 122°21'0 0.0
2017-Dec-08 12:00N 47°35' W 122°21'0 0.0
2017-Dec-08 11:29N 47°35' W 122°21'0 0.0
2017-Dec-08 11:00N 47°35' W 122°21'0 0.0
2017-Dec-08 10:30N 47°35' W 122°21'0 0.0
2017-Dec-08 09:59N 47°35' W 122°21'0 0.0
2017-Dec-08 09:29N 47°35' W 122°21'0 0.0
2017-Dec-08 09:00N 47°35' W 122°21'0 0.0
2017-Dec-08 08:29N 47°35' W 122°21'0 0.0
2017-Dec-08 08:00N 47°35' W 122°21'0 0.0
2017-Dec-08 07:29N 47°35' W 122°21'0 0.0
2017-Dec-08 07:00N 47°35' W 122°21'0 0.0
2017-Dec-08 06:29N 47°35' W 122°21'0 0.0
2017-Dec-08 05:59N 47°35' W 122°21'0 0.0
2017-Dec-08 05:29N 47°35' W 122°21'0 0.0
2017-Dec-08 04:59N 47°35' W 122°21'0 0.0
2017-Dec-08 04:29N 47°35' W 122°21'0 0.0
2017-Dec-08 04:00N 47°35' W 122°21'0 0.0
2017-Dec-08 03:30N 47°35' W 122°21'0 0.0
2017-Dec-08 03:00N 47°35' W 122°21'0 0.0
2017-Dec-08 02:30N 47°35' W 122°21'0 0.0
2017-Dec-08 02:00N 47°35' W 122°21'0 0.1
2017-Dec-08 01:31N 47°35' W 122°21'1 1.1
2017-Dec-08 01:01N 47°36' W 122°21'3 6.8
2017-Dec-08 00:30N 47°37' W 122°25'714.4
2017-Dec-08 00:00N 47°44' W 122°27'1020.4
2017-Dec-07 23:30N 47°54' W 122°30'1220.0
2017-Dec-07 22:54N 48°05' W 122°39'818.5
2017-Dec-07 22:28N 48°10' W 122°48'918.6
2017-Dec-07 22:00N 48°12' W 123°00'917.9
2017-Dec-07 21:30N 48°11' W 123°14'713.7
2017-Dec-07 21:00N 48°10' W 123°24'510.3
2017-Dec-07 20:29N 48°13' W 123°30'613.5
2017-Dec-07 20:00N 48°13' W 123°40'1019.1
2017-Dec-07 19:30N 48°13' W 123°55'1020.2
2017-Dec-07 19:00N 48°18' W 124°08'1020.0
2017-Dec-07 18:30N 48°22' W 124°22'1020.2
2017-Dec-07 18:00N 48°26' W 124°36'1020.4
2017-Dec-07 17:30N 48°29' W 124°50'1020.1
2017-Dec-07 17:00N 48°28' W 125°06'1019.7
2017-Dec-07 16:30N 48°21' W 125°15'1122.5
2017-Dec-07 16:00N 48°11' W 125°24'1223.0
2017-Dec-07 15:30N 48°01' W 125°33'1223.4
2017-Dec-07 15:01N 47°51' W 125°41'1223.1
2017-Dec-07 14:30N 47°41' W 125°50'1123.0
2017-Dec-07 14:00N 47°31' W 125°59'1122.7
2017-Dec-07 13:30N 47°22' W 126°07'1123.0
2017-Dec-07 13:01N 47°12' W 126°16'1223.4
2017-Dec-07 12:30N 47°02' W 126°25'1223.5
2017-Dec-07 12:00N 46°51' W 126°33'1223.5
2017-Dec-07 11:31N 46°41' W 126°42'1223.7
2017-Dec-07 11:01N 46°31' W 126°50'1223.7
2017-Dec-07 10:31N 46°21' W 126°59'1223.8
2017-Dec-07 10:00N 46°10' W 127°08'1223.8
2017-Dec-07 09:30N 46°00' W 127°16'1224.1
2017-Dec-07 09:00N 45°50' W 127°25'1224.1
2017-Dec-07 08:31N 45°39' W 127°33'1223.9
2017-Dec-07 08:01N 45°29' W 127°41'1223.8
2017-Dec-07 07:30N 45°18' W 127°50'1223.9
2017-Dec-07 07:01N 45°08' W 127°58'1223.9
2017-Dec-07 06:31N 44°58' W 128°06'1223.8
2017-Dec-07 06:01N 44°47' W 128°14'1223.6
2017-Dec-07 05:31N 44°37' W 128°22'1223.9
2017-Dec-07 05:01N 44°26' W 128°30'1424.0
2017-Dec-07 04:27N 44°14' W 128°39'1023.7
2017-Dec-07 04:01N 44°05' W 128°46'  

Dump ship's entire track history